Terminal Aerodrome Forecast
Issued by NWS Charleston, WV

Current Version | Previous Version | Graphics & Text | Print | Product List | Glossary On
Versions: 1 2 3 4 5 6 7 8 9 10 11 12 13 14 15 16 17 18 19 20 21 22 23 24 25 26
000
FTUS41 KRLX 141740
TAFHTS
TAF
KHTS 141740Z 1418/1518 00000KT 3/4SM -RA OVC004
     FM141900 31003KT 1SM -RA OVC004
     FM150200 33004KT 1SM -DZ OVC002
     FM150400 33003KT 1/4SM FG OVC001
     FM150900 36003KT 1SM BR OVC002
     FM151500 05004KT 4SM BR OVC004
     FM151600 VRB03KT P6SM OVC015=

USA.gov is the U.S. government's official web portal to all federal, state and local government web resources and services.